createdAt,value
2018-11-26T00:05:49.644Z,62.18
2018-11-26T00:11:44.659Z,67.21
2018-11-26T00:17:39.647Z,89.03
2018-11-26T00:23:34.678Z,63.65
2018-11-26T00:29:29.679Z,66.39
2018-11-26T00:35:24.659Z,82.99
2018-11-26T00:41:19.671Z,96.56
2018-11-26T00:47:14.692Z,167.03
2018-11-26T00:53:09.706Z,198.61
2018-11-26T00:59:04.753Z,119.44
2018-11-26T01:04:59.684Z,144.01
2018-11-26T01:10:54.755Z,106.64
2018-11-26T01:16:49.716Z,17.95
2018-11-26T01:22:44.721Z,12.63
2018-11-26T01:28:39.679Z,15.72
2018-11-26T01:34:34.716Z,10.8
2018-11-26T01:40:29.716Z,9.25
2018-11-26T01:46:24.699Z,9.72
2018-11-26T01:52:19.734Z,7.3
2018-11-26T01:58:14.724Z,6.3
2018-11-26T02:04:09.707Z,5.81
2018-11-26T02:10:04.715Z,1.44
2018-11-26T02:15:59.731Z,3.57
2018-11-26T02:21:54.732Z,2.98
2018-11-26T02:27:49.768Z,4
2018-11-26T02:33:44.785Z,1.7
2018-11-26T02:39:39.718Z,4.95
2018-11-26T02:45:34.761Z,2.4
2018-11-26T02:51:29.763Z,1.89
2018-11-26T02:57:24.768Z,3.18
2018-11-26T03:03:19.788Z,2.68
2018-11-26T03:09:14.783Z,2.46
2018-11-26T03:15:09.768Z,5.41
2018-11-26T03:21:04.776Z,2.59
2018-11-26T03:26:59.754Z,3.1
2018-11-26T03:32:54.772Z,1.35
2018-11-26T03:38:49.784Z,2.42
2018-11-26T03:44:44.768Z,4.97
2018-11-26T03:50:39.766Z,8.42
2018-11-26T03:56:34.780Z,5.28
2018-11-26T04:02:29.812Z,2.41
2018-11-26T04:08:24.792Z,6.15
2018-11-26T04:14:19.792Z,4.32
2018-11-26T04:20:14.799Z,4.27
2018-11-26T04:26:09.788Z,5.79
2018-11-26T04:32:04.814Z,4.49
2018-11-26T04:37:59.811Z,3.87
2018-11-26T04:43:54.795Z,8.22
2018-11-26T04:49:49.814Z,9.59
2018-11-26T04:55:44.793Z,5.23
2018-11-26T05:01:39.843Z,3.7
2018-11-26T05:07:34.820Z,4.2
2018-11-26T05:13:29.815Z,2.51
2018-11-26T05:19:24.823Z,6.61
2018-11-26T05:25:19.868Z,4.13
2018-11-26T05:31:14.863Z,5.73
2018-11-26T05:37:09.838Z,3.73
2018-11-26T05:43:04.886Z,3.25
2018-11-26T05:48:59.854Z,5.89
2018-11-26T05:54:54.842Z,6.17
2018-11-26T06:00:49.833Z,4.17
2018-11-26T06:06:44.858Z,5.45
2018-11-26T06:12:39.862Z,3.45
2018-11-26T06:18:34.859Z,4.77
2018-11-26T06:24:29.885Z,6.22
2018-11-26T06:30:24.851Z,5.26
2018-11-26T06:36:19.888Z,5.09
2018-11-26T06:42:14.872Z,5.05
2018-11-26T06:48:09.890Z,5.7
2018-11-26T06:54:04.875Z,6.52
2018-11-26T06:59:59.887Z,9.68
2018-11-26T07:05:54.899Z,10.27
2018-11-26T07:11:49.894Z,6.93
2018-11-26T07:17:44.887Z,6.98
2018-11-26T07:23:39.901Z,6.57
2018-11-26T07:29:34.895Z,12.16
2018-11-26T07:35:29.904Z,17.71
2018-11-26T07:41:24.917Z,22.7
2018-11-26T07:47:19.913Z,33.3
2018-11-26T07:53:14.913Z,34.97
2018-11-26T07:59:09.904Z,54.81
2018-11-26T08:05:04.909Z,54.63
2018-11-26T08:10:59.971Z,66.8
2018-11-26T08:16:54.911Z,53.69
2018-11-26T08:22:49.951Z,54.89
2018-11-26T08:28:44.925Z,60.44
2018-11-26T08:34:39.955Z,59.5
2018-11-26T08:40:34.941Z,44.19
2018-11-26T08:46:29.988Z,41.8
2018-11-26T08:52:24.963Z,45.02
2018-11-26T08:58:19.944Z,42.54
2018-11-26T09:04:14.984Z,47.37
2018-11-26T09:10:09.954Z,37.77
2018-11-26T09:16:04.968Z,42.84
2018-11-26T09:21:59.956Z,62.61
2018-11-26T09:27:54.964Z,58.03
2018-11-26T09:33:49.950Z,35.81
2018-11-26T09:39:44.953Z,31.96
2018-11-26T09:45:40.364Z,31.01
2018-11-26T09:51:41.896Z,30.21
2018-11-26T09:57:29.977Z,35.85
2018-11-26T10:03:24.995Z,35.23
2018-11-26T10:09:20.033Z,31.78
2018-11-26T10:15:15.025Z,27.99
2018-11-26T10:21:10.013Z,27.38
2018-11-26T10:27:05.008Z,30.91
2018-11-26T10:33:00.018Z,20.72
2018-11-26T10:38:55.009Z,16.79
2018-11-26T10:44:50.012Z,11.87
2018-11-26T10:50:45.024Z,9.58
2018-11-26T10:56:40.033Z,11
2018-11-26T11:02:35.032Z,11.3
2018-11-26T11:08:30.040Z,12.7
2018-11-26T11:14:25.564Z,13.8
2018-11-26T11:20:20.061Z,11.54
2018-11-26T11:26:15.046Z,8.71
2018-11-26T11:32:10.067Z,10.94
2018-11-26T11:38:05.041Z,8.46
2018-11-26T11:44:00.104Z,10.38
2018-11-26T11:49:55.063Z,4.84
2018-11-26T11:55:50.059Z,7.25
2018-11-26T12:01:45.072Z,8.87
2018-11-26T12:07:40.104Z,7.28
2018-11-26T12:13:35.065Z,8.22
2018-11-26T12:19:30.079Z,9.09
2018-11-26T12:25:25.081Z,7.93
2018-11-26T12:31:20.093Z,6.54
2018-11-26T12:37:15.084Z,6.44
2018-11-26T12:43:10.090Z,2.56
2018-11-26T12:49:05.108Z,3.46
2018-11-26T12:55:00.090Z,5.4
2018-11-26T13:00:55.097Z,6
2018-11-26T13:06:50.097Z,5.77
2018-11-26T13:12:45.106Z,6.27
2018-11-26T13:18:40.117Z,5.85
2018-11-26T13:24:35.125Z,5.38
2018-11-26T13:30:30.146Z,6.42
2018-11-26T13:36:25.121Z,9.47
2018-11-26T13:42:20.124Z,6.38
2018-11-26T13:48:15.118Z,7.47
2018-11-26T13:54:10.139Z,7.84
2018-11-26T14:00:05.114Z,9.58
2018-11-26T14:06:00.137Z,8.34
2018-11-26T14:11:55.134Z,5.76
2018-11-26T14:17:50.141Z,7.68
2018-11-26T14:23:45.192Z,9.9
2018-11-26T14:29:40.130Z,11.22
2018-11-26T14:35:35.133Z,9.78
2018-11-26T14:41:30.206Z,8.28
2018-11-26T14:47:25.144Z,9.49
2018-11-26T14:53:20.164Z,11.99
2018-11-26T14:59:15.168Z,7.35
2018-11-26T15:05:10.156Z,7.87
2018-11-26T15:11:05.177Z,9.6
2018-11-26T15:17:00.162Z,8.83
2018-11-26T15:22:55.167Z,9.07
2018-11-26T15:28:50.166Z,6
2018-11-26T15:34:45.171Z,7.24
2018-11-26T15:40:40.238Z,6.76
2018-11-26T15:46:35.197Z,7.46
2018-11-26T15:52:30.210Z,10.83
2018-11-26T15:58:25.196Z,10.75
2018-11-26T16:04:20.207Z,8.24
2018-11-26T16:10:15.182Z,10.37
2018-11-26T16:16:10.201Z,13.7
2018-11-26T16:22:05.176Z,14.71
2018-11-26T16:28:00.227Z,12.07
2018-11-26T16:33:55.215Z,12.79
2018-11-26T16:39:50.239Z,10.74
2018-11-26T16:45:45.210Z,12.42
2018-11-26T16:51:40.216Z,8.87
2018-11-26T16:57:35.208Z,8.12
2018-11-26T17:03:30.208Z,8.61
2018-11-26T17:09:25.210Z,9.18
2018-11-26T17:15:20.196Z,12.69
2018-11-26T17:21:15.225Z,12.73
2018-11-26T17:27:10.221Z,10.36
2018-11-26T17:33:05.236Z,9.67
2018-11-26T17:39:00.279Z,10.14
2018-11-26T17:44:55.256Z,11.61
2018-11-26T17:50:50.240Z,10.06
2018-11-26T17:56:45.247Z,13.95
2018-11-26T18:02:40.266Z,13.48
2018-11-26T18:08:35.275Z,11.13
2018-11-26T18:14:30.272Z,10.39
2018-11-26T18:20:25.249Z,8.24
2018-11-26T18:26:20.265Z,9.49
2018-11-26T18:32:15.282Z,46.11
2018-11-26T18:38:10.273Z,67.65
2018-11-26T18:44:05.328Z,18.73
2018-11-26T18:50:00.313Z,27
2018-11-26T18:55:55.266Z,35.08
2018-11-26T19:01:50.336Z,30.71
2018-11-26T19:07:45.297Z,24.58
2018-11-26T19:13:40.284Z,15.99
2018-11-26T19:19:35.341Z,16.7
2018-11-26T19:25:30.310Z,12.36
2018-11-26T19:31:25.311Z,12.5
2018-11-26T19:37:20.354Z,11.11
2018-11-26T19:43:15.327Z,11.92
2018-11-26T19:49:10.313Z,12.39
2018-11-26T19:55:05.308Z,8.83
2018-11-26T20:01:00.331Z,8.95
2018-11-26T20:06:55.316Z,5.28
2018-11-26T20:12:50.330Z,6.07
2018-11-26T20:18:45.403Z,7.21
2018-11-26T20:24:40.313Z,5.11
2018-11-26T20:30:35.368Z,5.69
2018-11-26T20:36:30.329Z,5.53
2018-11-26T20:42:25.391Z,18.11
2018-11-26T20:48:20.346Z,21.41
2018-11-26T20:54:15.359Z,23.29
2018-11-26T21:00:10.369Z,22.55
2018-11-26T21:06:05.357Z,21.02
2018-11-26T21:12:00.355Z,14.21
2018-11-26T21:17:55.361Z,13.97
2018-11-26T21:23:50.370Z,12.2
2018-11-26T21:29:45.368Z,9.22
2018-11-26T21:35:40.445Z,7.25
2018-11-26T21:41:35.354Z,9.93
2018-11-26T21:47:30.377Z,7.08
2018-11-26T21:53:25.369Z,8.9
2018-11-26T21:59:20.367Z,8.69
2018-11-26T22:05:15.371Z,7.28
2018-11-26T22:11:10.406Z,8.16
2018-11-26T22:17:05.399Z,7.66
2018-11-26T22:23:00.433Z,6.26
2018-11-26T22:28:55.458Z,4.84
2018-11-26T22:34:50.417Z,3.79
2018-11-26T22:40:45.433Z,5.06
2018-11-26T22:46:40.408Z,5.25
2018-11-26T22:52:35.402Z,4.8
2018-11-26T22:58:30.410Z,12.45
2018-11-26T23:04:25.414Z,11.17
2018-11-26T23:10:20.421Z,5.64
2018-11-26T23:16:15.411Z,10.82
2018-11-26T23:22:10.457Z,12.73
2018-11-26T23:28:05.416Z,9.41
2018-11-26T23:34:00.430Z,5.02
2018-11-26T23:39:55.444Z,8.25
2018-11-26T23:45:50.519Z,5.52
2018-11-26T23:51:45.432Z,7.09
2018-11-26T23:57:40.446Z,7.4
